sensor_id;sensor_type;location;lat;lon;timestamp;pressure;altitude;pressure_sealevel;temperature;humidity
64025;BME280;50266;57.446;26.936;2024-02-14T00:00:54;99091.28;;;-1.78;100.0
64025;BME280;50266;57.446;26.936;2024-02-14T00:01:54;99094.0;;;-1.76;100.0
64025;BME280;50266;57.446;26.936;2024-02-14T00:02:54;99090.17;;;-1.77;100.0
64025;BME280;50266;57.446;26.936;2024-02-14T00:03:54;99094.73;;;-1.77;100.0
64025;BME280;50266;57.446;26.936;2024-02-14T00:04:54;99097.25;;;-1.78;100.0
64025;BME280;50266;57.446;26.936;2024-02-14T00:05:54;99094.13;;;-1.77;100.0
64025;BME280;50266;57.446;26.936;2024-02-14T00:06:54;99094.36;;;-1.77;100.0
64025;BME280;50266;57.446;26.936;2024-02-14T00:07:54;99090.09;;;-1.74;100.0
64025;BME280;50266;57.446;26.936;2024-02-14T00:08:54;99092.68;;;-1.75;100.0
64025;BME280;50266;57.446;26.936;2024-02-14T00:09:54;99094.18;;;-1.76;100.0
64025;BME280;50266;57.446;26.936;2024-02-14T00:10:54;99095.2;;;-1.79;100.0
64025;BME280;50266;57.446;26.936;2024-02-14T00:11:54;99095.84;;;-1.78;100.0
64025;BME280;50266;57.446;26.936;2024-02-14T00:12:54;99092.89;;;-1.77;100.0
64025;BME280;50266;57.446;26.936;2024-02-14T00:13:54;99096.31;;;-1.77;100.0
64025;BME280;50266;57.446;26.936;2024-02-14T00:14:54;99096.24;;;-1.79;100.0
64025;BME280;50266;57.446;26.936;2024-02-14T00:15:54;99093.88;;;-1.78;100.0
64025;BME280;50266;57.446;26.936;2024-02-14T00:16:54;99096.88;;;-1.78;100.0
64025;BME280;50266;57.446;26.936;2024-02-14T00:17:54;99098.7;;;-1.77;100.0
64025;BME280;50266;57.446;26.936;2024-02-14T00:18:54;99092.56;;;-1.77;100.0
64025;BME280;50266;57.446;26.936;2024-02-14T00:19:54;99097.02;;;-1.79;100.0
64025;BME280;50266;57.446;26.936;2024-02-14T00:20:54;99092.01;;;-1.79;100.0
64025;BME280;50266;57.446;26.936;2024-02-14T00:21:54;99093.12;;;-1.8;100.0
64025;BME280;50266;57.446;26.936;2024-02-14T00:22:54;99093.07;;;-1.78;100.0
64025;BME280;50266;57.446;26.936;2024-02-14T00:23:54;99097.55;;;-1.74;100.0
64025;BME280;50266;57.446;26.936;2024-02-14T00:24:54;99106.72;;;-1.74;100.0
64025;BME280;50266;57.446;26.936;2024-02-14T00:25:54;99102.3;;;-1.76;100.0
64025;BME280;50266;57.446;26.936;2024-02-14T00:26:54;99103.47;;;-1.74;100.0
64025;BME280;50266;57.446;26.936;2024-02-14T00:27:54;99106.45;;;-1.75;100.0
64025;BME280;50266;57.446;26.936;2024-02-14T00:28:54;99102.12;;;-1.78;100.0
64025;BME280;50266;57.446;26.936;2024-02-14T00:29:54;99104.16;;;-1.79;100.0
64025;BME280;50266;57.446;26.936;2024-02-14T00:30:54;99104.66;;;-1.77;100.0
64025;BME280;50266;57.446;26.936;2024-02-14T00:31:54;99101.73;;;-1.77;100.0
64025;BME280;50266;57.446;26.936;2024-02-14T00:32:54;99103.68;;;-1.77;100.0
64025;BME280;50266;57.446;26.936;2024-02-14T00:33:55;99104.29;;;-1.77;100.0
64025;BME280;50266;57.446;26.936;2024-02-14T00:34:54;99106.27;;;-1.76;100.0
64025;BME280;50266;57.446;26.936;2024-02-14T00:35:54;99104.07;;;-1.8;100.0
64025;BME280;50266;57.446;26.936;2024-02-14T00:36:54;99107.64;;;-1.79;100.0
64025;BME280;50266;57.446;26.936;2024-02-14T00:37:54;99111.49;;;-1.77;100.0
64025;BME280;50266;57.446;26.936;2024-02-14T00:38:54;99108.73;;;-1.77;100.0
64025;BME280;50266;57.446;26.936;2024-02-14T00:39:54;99110.34;;;-1.79;100.0
64025;BME280;50266;57.446;26.936;2024-02-14T00:40:54;99104.22;;;-1.79;100.0
64025;BME280;50266;57.446;26.936;2024-02-14T00:41:54;99109.47;;;-1.78;100.0
64025;BME280;50266;57.446;26.936;2024-02-14T00:42:54;99111.05;;;-1.81;100.0
64025;BME280;50266;57.446;26.936;2024-02-14T00:43:57;99110.27;;;-1.8;100.0
64025;BME280;50266;57.446;26.936;2024-02-14T00:44:54;99109.22;;;-1.79;100.0
64025;BME280;50266;57.446;26.936;2024-02-14T00:45:54;99109.02;;;-1.77;100.0
64025;BME280;50266;57.446;26.936;2024-02-14T00:46:58;99108.82;;;-1.78;100.0
64025;BME280;50266;57.446;26.936;2024-02-14T00:47:54;99110.47;;;-1.79;100.0
64025;BME280;50266;57.446;26.936;2024-02-14T00:48:55;99110.75;;;-1.8;100.0
64025;BME280;50266;57.446;26.936;2024-02-14T00:49:54;99109.84;;;-1.78;100.0
64025;BME280;50266;57.446;26.936;2024-02-14T00:50:54;99111.83;;;-1.79;100.0
64025;BME280;50266;57.446;26.936;2024-02-14T00:51:54;99110.5;;;-1.81;100.0
64025;BME280;50266;57.446;26.936;2024-02-14T00:52:54;99115.47;;;-1.8;100.0
64025;BME280;50266;57.446;26.936;2024-02-14T00:53:55;99115.58;;;-1.77;100.0
64025;BME280;50266;57.446;26.936;2024-02-14T00:54:55;99113.53;;;-1.8;100.0
64025;BME280;50266;57.446;26.936;2024-02-14T00:55:55;99114.97;;;-1.79;100.0
64025;BME280;50266;57.446;26.936;2024-02-14T00:56:55;99113.83;;;-1.77;100.0
64025;BME280;50266;57.446;26.936;2024-02-14T00:57:55;99119.44;;;-1.85;100.0
64025;BME280;50266;57.446;26.936;2024-02-14T00:58:55;99118.52;;;-1.83;100.0
64025;BME280;50266;57.446;26.936;2024-02-14T00:59:55;99115.9;;;-1.79;100.0
64025;BME280;50266;57.446;26.936;2024-02-14T01:00:55;99118.58;;;-1.8;100.0
64025;BME280;50266;57.446;26.936;2024-02-14T01:01:55;99116.58;;;-1.81;100.0
64025;BME280;50266;57.446;26.936;2024-02-14T01:02:55;99120.2;;;-1.8;100.0
64025;BME280;50266;57.446;26.936;2024-02-14T01:03:55;99119.38;;;-1.82;100.0
64025;BME280;50266;57.446;26.936;2024-02-14T01:04:55;99118.69;;;-1.8;100.0
64025;BME280;50266;57.446;26.936;2024-02-14T01:05:55;99118.91;;;-1.78;100.0
64025;BME280;50266;57.446;26.936;2024-02-14T01:06:55;99120.11;;;-1.79;100.0
64025;BME280;50266;57.446;26.936;2024-02-14T01:07:55;99117.62;;;-1.79;100.0
64025;BME280;50266;57.446;26.936;2024-02-14T01:08:55;99118.05;;;-1.81;100.0
64025;BME280;50266;57.446;26.936;2024-02-14T01:09:55;99118.28;;;-1.79;100.0
64025;BME280;50266;57.446;26.936;2024-02-14T01:10:55;99118.16;;;-1.79;100.0
64025;BME280;50266;57.446;26.936;2024-02-14T01:11:55;99118.0;;;-1.79;100.0
64025;BME280;50266;57.446;26.936;2024-02-14T01:12:55;99119.16;;;-1.79;100.0
64025;BME280;50266;57.446;26.936;2024-02-14T01:13:55;99120.8;;;-1.8;100.0
64025;BME280;50266;57.446;26.936;2024-02-14T01:14:55;99118.16;;;-1.83;100.0
64025;BME280;50266;57.446;26.936;2024-02-14T01:15:55;99120.34;;;-1.82;100.0
64025;BME280;50266;57.446;26.936;2024-02-14T01:16:55;99119.02;;;-1.86;100.0
64025;BME280;50266;57.446;26.936;2024-02-14T01:17:55;99118.47;;;-1.85;100.0
64025;BME280;50266;57.446;26.936;2024-02-14T01:18:55;99119.9;;;-1.87;100.0
64025;BME280;50266;57.446;26.936;2024-02-14T01:19:55;99117.55;;;-1.86;100.0
64025;BME280;50266;57.446;26.936;2024-02-14T01:20:55;99115.11;;;-1.83;100.0
64025;BME280;50266;57.446;26.936;2024-02-14T01:21:55;99115.81;;;-1.83;100.0
64025;BME280;50266;57.446;26.936;2024-02-14T01:22:55;99113.32;;;-1.86;100.0
64025;BME280;50266;57.446;26.936;2024-02-14T01:23:55;99113.82;;;-1.84;100.0
64025;BME280;50266;57.446;26.936;2024-02-14T01:24:55;99119.49;;;-1.85;100.0
64025;BME280;50266;57.446;26.936;2024-02-14T01:25:55;99116.9;;;-1.89;100.0
64025;BME280;50266;57.446;26.936;2024-02-14T01:26:55;99115.36;;;-1.88;100.0
64025;BME280;50266;57.446;26.936;2024-02-14T01:27:55;99118.06;;;-1.88;100.0
64025;BME280;50266;57.446;26.936;2024-02-14T01:28:55;99115.92;;;-1.86;100.0
64025;BME280;50266;57.446;26.936;2024-02-14T01:29:55;99122.3;;;-1.88;100.0
64025;BME280;50266;57.446;26.936;2024-02-14T01:30:55;99115.84;;;-1.88;100.0
64025;BME280;50266;57.446;26.936;2024-02-14T01:31:55;99118.49;;;-1.87;100.0
64025;BME280;50266;57.446;26.936;2024-02-14T01:32:55;99118.31;;;-1.87;100.0
64025;BME280;50266;57.446;26.936;2024-02-14T01:33:55;99115.02;;;-1.9;100.0
64025;BME280;50266;57.446;26.936;2024-02-14T01:34:55;99118.66;;;-1.9;100.0
64025;BME280;50266;57.446;26.936;2024-02-14T01:35:55;99117.77;;;-1.89;100.0
64025;BME280;50266;57.446;26.936;2024-02-14T01:36:55;99112.47;;;-1.92;100.0
64025;BME280;50266;57.446;26.936;2024-02-14T01:37:55;99117.72;;;-1.92;100.0
64025;BME280;50266;57.446;26.936;2024-02-14T01:38:55;99118.35;;;-1.91;100.0
64025;BME280;50266;57.446;26.936;2024-02-14T01:39:55;99117.92;;;-1.88;100.0
64025;BME280;50266;57.446;26.936;2024-02-14T01:40:55;99117.79;;;-1.9;100.0
64025;BME280;50266;57.446;26.936;2024-02-14T01:41:55;99116.88;;;-1.93;100.0
64025;BME280;50266;57.446;26.936;2024-02-14T01:42:55;99119.28;;;-1.92;100.0
64025;BME280;50266;57.446;26.936;2024-02-14T01:43:55;99116.66;;;-1.93;100.0
64025;BME280;50266;57.446;26.936;2024-02-14T01:44:55;99118.48;;;-1.92;100.0
64025;BME280;50266;57.446;26.936;2024-02-14T01:45:56;99119.39;;;-1.91;100.0
64025;BME280;50266;57.446;26.936;2024-02-14T01:46:59;99117.02;;;-1.92;100.0
64025;BME280;50266;57.446;26.936;2024-02-14T01:47:59;99119.5;;;-1.94;100.0
64025;BME280;50266;57.446;26.936;2024-02-14T01:48:58;99118.39;;;-1.95;100.0
64025;BME280;50266;57.446;26.936;2024-02-14T01:49:59;99120.83;;;-1.93;100.0
64025;BME280;50266;57.446;26.936;2024-02-14T01:50:59;99121.06;;;-1.94;100.0
64025;BME280;50266;57.446;26.936;2024-02-14T01:51:59;99125.45;;;-1.93;100.0
64025;BME280;50266;57.446;26.936;2024-02-14T01:52:58;99124.95;;;-1.95;100.0
64025;BME280;50266;57.446;26.936;2024-02-14T01:53:59;99130.08;;;-1.94;100.0
64025;BME280;50266;57.446;26.936;2024-02-14T01:54:58;99125.77;;;-1.93;100.0
64025;BME280;50266;57.446;26.936;2024-02-14T01:55:59;99126.98;;;-1.94;100.0
64025;BME280;50266;57.446;26.936;2024-02-14T01:56:59;99123.07;;;-1.99;100.0
64025;BME280;50266;57.446;26.936;2024-02-14T01:57:59;99122.86;;;-1.96;100.0
64025;BME280;50266;57.446;26.936;2024-02-14T01:58:59;99124.42;;;-1.96;100.0
64025;BME280;50266;57.446;26.936;2024-02-14T01:59:59;99125.18;;;-1.96;100.0
64025;BME280;50266;57.446;26.936;2024-02-14T02:00:59;99123.47;;;-1.94;100.0
64025;BME280;50266;57.446;26.936;2024-02-14T02:01:59;99121.19;;;-1.94;100.0
64025;BME280;50266;57.446;26.936;2024-02-14T02:02:59;99125.95;;;-1.94;100.0
64025;BME280;50266;57.446;26.936;2024-02-14T02:03:59;99129.56;;;-1.95;100.0
64025;BME280;50266;57.446;26.936;2024-02-14T02:04:59;99129.88;;;-1.94;100.0
64025;BME280;50266;57.446;26.936;2024-02-14T02:05:59;99130.95;;;-1.94;100.0
64025;BME280;50266;57.446;26.936;2024-02-14T02:06:59;99134.7;;;-1.97;100.0
64025;BME280;50266;57.446;26.936;2024-02-14T02:07:59;99134.09;;;-1.94;100.0
64025;BME280;50266;57.446;26.936;2024-02-14T02:08:59;99127.61;;;-1.9;100.0
64025;BME280;50266;57.446;26.936;2024-02-14T02:09:59;99132.78;;;-1.91;100.0
64025;BME280;50266;57.446;26.936;2024-02-14T02:10:59;99131.74;;;-1.91;100.0
64025;BME280;50266;57.446;26.936;2024-02-14T02:11:59;99131.12;;;-1.89;100.0
64025;BME280;50266;57.446;26.936;2024-02-14T02:12:59;99134.5;;;-1.93;100.0
64025;BME280;50266;57.446;26.936;2024-02-14T02:13:59;99131.5;;;-1.89;100.0
64025;BME280;50266;57.446;26.936;2024-02-14T02:14:59;99131.27;;;-1.88;100.0
64025;BME280;50266;57.446;26.936;2024-02-14T02:15:59;99133.52;;;-1.93;100.0
64025;BME280;50266;57.446;26.936;2024-02-14T02:16:59;99135.55;;;-1.94;100.0
64025;BME280;50266;57.446;26.936;2024-02-14T02:17:59;99133.55;;;-1.91;100.0
64025;BME280;50266;57.446;26.936;2024-02-14T02:18:59;99136.17;;;-1.95;100.0
64025;BME280;50266;57.446;26.936;2024-02-14T02:19:59;99141.73;;;-1.94;100.0
64025;BME280;50266;57.446;26.936;2024-02-14T02:20:59;99142.25;;;-1.92;100.0
64025;BME280;50266;57.446;26.936;2024-02-14T02:22:00;99141.7;;;-1.92;100.0
64025;BME280;50266;57.446;26.936;2024-02-14T02:22:59;99140.23;;;-1.89;100.0
64025;BME280;50266;57.446;26.936;2024-02-14T02:24:00;99138.33;;;-1.92;100.0
64025;BME280;50266;57.446;26.936;2024-02-14T02:25:00;99145.77;;;-1.92;100.0
64025;BME280;50266;57.446;26.936;2024-02-14T02:26:00;99140.78;;;-1.97;100.0
64025;BME280;50266;57.446;26.936;2024-02-14T02:27:00;99140.89;;;-1.95;100.0
64025;BME280;50266;57.446;26.936;2024-02-14T02:28:00;99143.31;;;-1.99;100.0
64025;BME280;50266;57.446;26.936;2024-02-14T02:29:00;99145.36;;;-1.96;100.0
64025;BME280;50266;57.446;26.936;2024-02-14T02:30:00;99143.38;;;-1.92;100.0
64025;BME280;50266;57.446;26.936;2024-02-14T02:31:00;99142.41;;;-1.92;100.0
64025;BME280;50266;57.446;26.936;2024-02-14T02:32:00;99139.45;;;-1.94;100.0
64025;BME280;50266;57.446;26.936;2024-02-14T02:33:00;99139.9;;;-1.91;100.0
64025;BME280;50266;57.446;26.936;2024-02-14T02:34:00;99138.97;;;-1.94;100.0
64025;BME280;50266;57.446;26.936;2024-02-14T02:35:00;99138.69;;;-1.93;100.0
64025;BME280;50266;57.446;26.936;2024-02-14T02:36:00;99138.62;;;-1.93;100.0
64025;BME280;50266;57.446;26.936;2024-02-14T02:37:00;99142.88;;;-1.91;100.0
64025;BME280;50266;57.446;26.936;2024-02-14T02:38:00;99138.98;;;-1.92;100.0
64025;BME280;50266;57.446;26.936;2024-02-14T02:39:00;99140.33;;;-1.94;100.0
64025;BME280;50266;57.446;26.936;2024-02-14T02:40:00;99140.84;;;-1.95;100.0
64025;BME280;50266;57.446;26.936;2024-02-14T02:41:00;99141.89;;;-1.94;100.0
64025;BME280;50266;57.446;26.936;2024-02-14T02:42:00;99138.36;;;-1.93;100.0
64025;BME280;50266;57.446;26.936;2024-02-14T02:43:00;99142.52;;;-1.92;100.0
64025;BME280;50266;57.446;26.936;2024-02-14T02:44:00;99139.6;;;-1.93;100.0
64025;BME280;50266;57.446;26.936;2024-02-14T02:45:00;99142.56;;;-1.99;100.0
64025;BME280;50266;57.446;26.936;2024-02-14T02:46:00;99144.41;;;-2.02;100.0
64025;BME280;50266;57.446;26.936;2024-02-14T02:47:00;99141.45;;;-1.98;100.0
64025;BME280;50266;57.446;26.936;2024-02-14T02:48:00;99146.8;;;-2.0;100.0
64025;BME280;50266;57.446;26.936;2024-02-14T02:49:00;99146.78;;;-1.96;100.0
64025;BME280;50266;57.446;26.936;2024-02-14T02:50:00;99147.33;;;-1.97;100.0
64025;BME280;50266;57.446;26.936;2024-02-14T02:51:00;99147.82;;;-1.97;100.0
64025;BME280;50266;57.446;26.936;2024-02-14T02:52:00;99152.25;;;-1.98;100.0
64025;BME280;50266;57.446;26.936;2024-02-14T02:53:00;99155.16;;;-1.97;100.0
64025;BME280;50266;57.446;26.936;2024-02-14T02:54:00;99152.98;;;-1.97;100.0
64025;BME280;50266;57.446;26.936;2024-02-14T02:55:00;99150.75;;;-1.97;100.0
64025;BME280;50266;57.446;26.936;2024-02-14T02:56:00;99156.71;;;-1.96;100.0
64025;BME280;50266;57.446;26.936;2024-02-14T02:57:00;99155.66;;;-1.95;100.0
64025;BME280;50266;57.446;26.936;2024-02-14T02:58:00;99161.8;;;-1.96;100.0
64025;BME280;50266;57.446;26.936;2024-02-14T02:59:01;99157.02;;;-1.98;100.0
64025;BME280;50266;57.446;26.936;2024-02-14T03:00:01;99159.97;;;-1.99;100.0
64025;BME280;50266;57.446;26.936;2024-02-14T03:01:01;99160.06;;;-1.98;100.0
64025;BME280;50266;57.446;26.936;2024-02-14T03:02:01;99162.5;;;-1.98;100.0
64025;BME280;50266;57.446;26.936;2024-02-14T03:03:01;99161.81;;;-1.97;100.0
64025;BME280;50266;57.446;26.936;2024-02-14T03:04:01;99167.75;;;-1.98;100.0
64025;BME280;50266;57.446;26.936;2024-02-14T03:05:01;99164.16;;;-1.97;100.0
64025;BME280;50266;57.446;26.936;2024-02-14T03:06:03;99165.52;;;-1.97;100.0
64025;BME280;50266;57.446;26.936;2024-02-14T03:07:01;99160.98;;;-1.99;100.0
64025;BME280;50266;57.446;26.936;2024-02-14T03:08:01;99168.99;;;-1.97;100.0
64025;BME280;50266;57.446;26.936;2024-02-14T03:09:01;99166.42;;;-1.96;100.0
64025;BME280;50266;57.446;26.936;2024-02-14T03:10:01;99168.3;;;-1.95;100.0
64025;BME280;50266;57.446;26.936;2024-02-14T03:11:04;99170.12;;;-1.95;100.0
64025;BME280;50266;57.446;26.936;2024-02-14T03:12:02;99174.57;;;-1.97;100.0
64025;BME280;50266;57.446;26.936;2024-02-14T03:13:01;99170.67;;;-1.95;100.0
64025;BME280;50266;57.446;26.936;2024-02-14T03:14:01;99172.62;;;-1.94;100.0
64025;BME280;50266;57.446;26.936;2024-02-14T03:15:03;99172.9;;;-1.95;100.0
64025;BME280;50266;57.446;26.936;2024-02-14T03:16:01;99169.95;;;-1.94;100.0
64025;BME280;50266;57.446;26.936;2024-02-14T03:17:01;99174.11;;;-1.93;100.0
64025;BME280;50266;57.446;26.936;2024-02-14T03:18:01;99172.66;;;-1.94;100.0
64025;BME280;50266;57.446;26.936;2024-02-14T03:19:01;99176.16;;;-1.93;100.0
64025;BME280;50266;57.446;26.936;2024-02-14T03:20:01;99174.86;;;-1.9;100.0
64025;BME280;50266;57.446;26.936;2024-02-14T03:21:03;99173.11;;;-1.89;100.0
64025;BME280;50266;57.446;26.936;2024-02-14T03:22:03;99175.68;;;-1.95;100.0
64025;BME280;50266;57.446;26.936;2024-02-14T03:23:03;99177.37;;;-1.96;100.0
64025;BME280;50266;57.446;26.936;2024-02-14T03:24:03;99180.34;;;-1.95;100.0
64025;BME280;50266;57.446;26.936;2024-02-14T03:25:03;99181.54;;;-1.95;100.0
64025;BME280;50266;57.446;26.936;2024-02-14T03:26:03;99182.25;;;-1.93;100.0
64025;BME280;50266;57.446;26.936;2024-02-14T03:27:03;99181.44;;;-1.93;100.0
64025;BME280;50266;57.446;26.936;2024-02-14T03:28:03;99183.58;;;-1.97;100.0
64025;BME280;50266;57.446;26.936;2024-02-14T03:29:03;99182.77;;;-1.94;100.0
64025;BME280;50266;57.446;26.936;2024-02-14T03:30:03;99185.31;;;-1.94;100.0
64025;BME280;50266;57.446;26.936;2024-02-14T03:31:03;99184.14;;;-1.93;100.0
64025;BME280;50266;57.446;26.936;2024-02-14T03:32:03;99185.27;;;-1.92;100.0
64025;BME280;50266;57.446;26.936;2024-02-14T03:33:03;99186.0;;;-1.94;100.0
64025;BME280;50266;57.446;26.936;2024-02-14T03:34:03;99186.05;;;-1.96;100.0
64025;BME280;50266;57.446;26.936;2024-02-14T03:35:03;99183.8;;;-1.95;100.0
64025;BME280;50266;57.446;26.936;2024-02-14T03:36:03;99183.3;;;-1.94;100.0
64025;BME280;50266;57.446;26.936;2024-02-14T03:37:03;99183.98;;;-1.93;100.0
64025;BME280;50266;57.446;26.936;2024-02-14T03:38:03;99185.94;;;-1.93;100.0
64025;BME280;50266;57.446;26.936;2024-02-14T03:39:03;99186.03;;;-1.92;100.0
64025;BME280;50266;57.446;26.936;2024-02-14T03:40:04;99182.95;;;-1.9;100.0
64025;BME280;50266;57.446;26.936;2024-02-14T03:41:03;99183.58;;;-1.92;100.0
64025;BME280;50266;57.446;26.936;2024-02-14T03:42:03;99181.41;;;-1.91;100.0
64025;BME280;50266;57.446;26.936;2024-02-14T03:43:03;99181.66;;;-1.9;100.0
64025;BME280;50266;57.446;26.936;2024-02-14T03:44:03;99181.08;;;-1.88;100.0
64025;BME280;50266;57.446;26.936;2024-02-14T03:45:03;99183.7;;;-1.89;100.0
64025;BME280;50266;57.446;26.936;2024-02-14T03:46:03;99184.16;;;-1.91;100.0
64025;BME280;50266;57.446;26.936;2024-02-14T03:47:04;99189.42;;;-1.91;100.0
64025;BME280;50266;57.446;26.936;2024-02-14T03:48:03;99190.03;;;-1.91;100.0
64025;BME280;50266;57.446;26.936;2024-02-14T03:49:03;99191.83;;;-1.89;100.0
64025;BME280;50266;57.446;26.936;2024-02-14T03:50:03;99191.39;;;-1.89;100.0
64025;BME280;50266;57.446;26.936;2024-02-14T03:51:03;99193.12;;;-1.89;100.0
64025;BME280;50266;57.446;26.936;2024-02-14T03:52:04;99194.52;;;-1.9;100.0
64025;BME280;50266;57.446;26.936;2024-02-14T03:53:03;99191.39;;;-1.92;100.0
64025;BME280;50266;57.446;26.936;2024-02-14T03:54:03;99191.29;;;-1.92;100.0
64025;BME280;50266;57.446;26.936;2024-02-14T03:55:04;99188.55;;;-1.91;100.0
64025;BME280;50266;57.446;26.936;2024-02-14T03:56:04;99193.5;;;-1.89;100.0
64025;BME280;50266;57.446;26.936;2024-02-14T03:57:03;99187.01;;;-1.89;100.0
64025;BME280;50266;57.446;26.936;2024-02-14T03:58:03;99190.99;;;-1.93;100.0
64025;BME280;50266;57.446;26.936;2024-02-14T03:59:03;99193.64;;;-1.93;100.0
64025;BME280;50266;57.446;26.936;2024-02-14T04:00:04;99188.79;;;-1.92;100.0
64025;BME280;50266;57.446;26.936;2024-02-14T04:01:04;99187.4;;;-1.93;100.0
64025;BME280;50266;57.446;26.936;2024-02-14T04:02:04;99187.23;;;-1.93;100.0
64025;BME280;50266;57.446;26.936;2024-02-14T04:03:04;99189.04;;;-1.93;100.0
64025;BME280;50266;57.446;26.936;2024-02-14T04:04:03;99189.84;;;-1.93;100.0
64025;BME280;50266;57.446;26.936;2024-02-14T04:05:04;99191.42;;;-1.9;100.0
64025;BME280;50266;57.446;26.936;2024-02-14T04:06:04;99189.51;;;-1.9;100.0
64025;BME280;50266;57.446;26.936;2024-02-14T04:07:04;99188.22;;;-1.88;100.0
64025;BME280;50266;57.446;26.936;2024-02-14T04:08:04;99192.29;;;-1.88;100.0
64025;BME280;50266;57.446;26.936;2024-02-14T04:09:04;99188.47;;;-1.87;100.0
64025;BME280;50266;57.446;26.936;2024-02-14T04:10:04;99191.56;;;-1.87;100.0
64025;BME280;50266;57.446;26.936;2024-02-14T04:11:04;99188.34;;;-1.91;100.0
64025;BME280;50266;57.446;26.936;2024-02-14T04:12:04;99190.78;;;-1.88;100.0
64025;BME280;50266;57.446;26.936;2024-02-14T04:13:04;99188.81;;;-1.87;100.0
64025;BME280;50266;57.446;26.936;2024-02-14T04:14:04;99194.55;;;-1.86;100.0
64025;BME280;50266;57.446;26.936;2024-02-14T04:15:04;99190.97;;;-1.86;100.0
64025;BME280;50266;57.446;26.936;2024-02-14T04:16:04;99193.8;;;-1.86;100.0
64025;BME280;50266;57.446;26.936;2024-02-14T04:17:04;99195.25;;;-1.86;100.0
64025;BME280;50266;57.446;26.936;2024-02-14T04:18:04;99195.98;;;-1.87;100.0
64025;BME280;50266;57.446;26.936;2024-02-14T04:19:04;99195.11;;;-1.84;100.0
64025;BME280;50266;57.446;26.936;2024-02-14T04:20:04;99202.56;;;-1.82;100.0
64025;BME280;50266;57.446;26.936;2024-02-14T04:21:07;99201.38;;;-1.85;100.0
64025;BME280;50266;57.446;26.936;2024-02-14T04:22:04;99203.39;;;-1.85;100.0
64025;BME280;50266;57.446;26.936;2024-02-14T04:23:04;99203.81;;;-1.86;100.0
64025;BME280;50266;57.446;26.936;2024-02-14T04:24:04;99203.08;;;-1.87;100.0
64025;BME280;50266;57.446;26.936;2024-02-14T04:25:04;99208.64;;;-1.92;100.0
64025;BME280;50266;57.446;26.936;2024-02-14T04:26:04;99208.16;;;-1.89;100.0
64025;BME280;50266;57.446;26.936;2024-02-14T04:27:04;99205.77;;;-1.86;100.0
64025;BME280;50266;57.446;26.936;2024-02-14T04:28:04;99207.25;;;-1.87;100.0
64025;BME280;50266;57.446;26.936;2024-02-14T04:29:04;99206.52;;;-1.88;100.0
64025;BME280;50266;57.446;26.936;2024-02-14T04:30:04;99211.91;;;-1.87;100.0
64025;BME280;50266;57.446;26.936;2024-02-14T04:31:04;99210.95;;;-1.87;100.0
64025;BME280;50266;57.446;26.936;2024-02-14T04:32:04;99214.16;;;-1.88;100.0
64025;BME280;50266;57.446;26.936;2024-02-14T04:33:04;99213.91;;;-1.86;100.0
64025;BME280;50266;57.446;26.936;2024-02-14T04:34:04;99212.45;;;-1.86;100.0
64025;BME280;50266;57.446;26.936;2024-02-14T04:35:04;99212.61;;;-1.86;100.0
64025;BME280;50266;57.446;26.936;2024-02-14T04:36:04;99211.95;;;-1.85;100.0
64025;BME280;50266;57.446;26.936;2024-02-14T04:37:04;99212.59;;;-1.84;100.0
64025;BME280;50266;57.446;26.936;2024-02-14T04:38:04;99217.7;;;-1.82;100.0
64025;BME280;50266;57.446;26.936;2024-02-14T04:39:04;99217.7;;;-1.82;100.0
64025;BME280;50266;57.446;26.936;2024-02-14T04:40:05;99218.89;;;-1.82;100.0
64025;BME280;50266;57.446;26.936;2024-02-14T04:41:04;99222.33;;;-1.8;100.0
64025;BME280;50266;57.446;26.936;2024-02-14T04:42:04;99219.77;;;-1.79;100.0
64025;BME280;50266;57.446;26.936;2024-02-14T04:43:04;99225.18;;;-1.79;100.0
64025;BME280;50266;57.446;26.936;2024-02-14T04:44:04;99223.97;;;-1.81;100.0
64025;BME280;50266;57.446;26.936;2024-02-14T04:45:04;99229.66;;;-1.81;100.0
64025;BME280;50266;57.446;26.936;2024-02-14T04:46:04;99223.47;;;-1.85;100.0
64025;BME280;50266;57.446;26.936;2024-02-14T04:47:04;99227.66;;;-1.87;100.0
64025;BME280;50266;57.446;26.936;2024-02-14T04:48:04;99227.24;;;-1.84;100.0
64025;BME280;50266;57.446;26.936;2024-02-14T04:49:04;99231.98;;;-1.86;100.0
64025;BME280;50266;57.446;26.936;2024-02-14T04:50:04;99230.35;;;-1.86;100.0
64025;BME280;50266;57.446;26.936;2024-02-14T04:51:04;99231.28;;;-1.83;100.0
64025;BME280;50266;57.446;26.936;2024-02-14T04:52:04;99233.2;;;-1.84;100.0
64025;BME280;50266;57.446;26.936;2024-02-14T04:53:04;99229.53;;;-1.82;100.0
64025;BME280;50266;57.446;26.936;2024-02-14T04:54:04;99232.44;;;-1.81;100.0
64025;BME280;50266;57.446;26.936;2024-02-14T04:55:04;99236.77;;;-1.8;100.0
64025;BME280;50266;57.446;26.936;2024-02-14T04:56:04;99233.22;;;-1.82;100.0
64025;BME280;50266;57.446;26.936;2024-02-14T04:57:04;99231.72;;;-1.86;100.0
64025;BME280;50266;57.446;26.936;2024-02-14T04:58:04;99232.51;;;-1.84;100.0
64025;BME280;50266;57.446;26.936;2024-02-14T04:59:04;99232.49;;;-1.84;100.0
64025;BME280;50266;57.446;26.936;2024-02-14T05:00:05;99235.83;;;-1.85;100.0
64025;BME280;50266;57.446;26.936;2024-02-14T05:01:04;99236.5;;;-1.83;100.0
64025;BME280;50266;57.446;26.936;2024-02-14T05:02:04;99236.7;;;-1.82;100.0
64025;BME280;50266;57.446;26.936;2024-02-14T05:03:05;99237.89;;;-1.82;100.0
64025;BME280;50266;57.446;26.936;2024-02-14T05:04:04;99236.86;;;-1.82;100.0
64025;BME280;50266;57.446;26.936;2024-02-14T05:05:05;99237.84;;;-1.8;100.0
64025;BME280;50266;57.446;26.936;2024-02-14T05:06:05;99239.8;;;-1.86;100.0
64025;BME280;50266;57.446;26.936;2024-02-14T05:07:04;99240.52;;;-1.83;100.0
64025;BME280;50266;57.446;26.936;2024-02-14T05:08:04;99247.19;;;-1.86;100.0
64025;BME280;50266;57.446;26.936;2024-02-14T05:09:05;99249.02;;;-1.89;100.0
64025;BME280;50266;57.446;26.936;2024-02-14T05:10:05;99251.23;;;-1.91;100.0
64025;BME280;50266;57.446;26.936;2024-02-14T05:11:04;99249.84;;;-1.89;100.0
64025;BME280;50266;57.446;26.936;2024-02-14T05:12:05;99245.25;;;-1.88;100.0
64025;BME280;50266;57.446;26.936;2024-02-14T05:13:04;99249.4;;;-1.86;100.0
64025;BME280;50266;57.446;26.936;2024-02-14T05:14:04;99251.67;;;-1.86;100.0
64025;BME280;50266;57.446;26.936;2024-02-14T05:15:05;99253.36;;;-1.85;100.0